WetterOnline ( https://www.wetteronline.de )

Wetter aktuell Rostock

Aktuelles Wetter: Rostock-Warnemünde (10m)

6-stündlich | Neueste Meldungen
Ortszeit Temperatur Wetter
Do, 26.05. 14:00 16.5° C leichter Regen
Do, 26.05. 8:00 13.7° C bedeckt
Do, 26.05. 2:00 13.4° C bedeckt
Mi, 25.05. 20:00 12.9° C Regen
Mi, 25.05. 14:00 15.7° C wolkig
Mi, 25.05. 8:00 13.1° C wolkig
Mi, 25.05. 2:00 10.8° C wolkenlos
Di, 24.05. 20:00 14.6° C leicht bewölkt
Ortszeit Temperatur Wetter
Do, 26.05. 19:30 15.5° C wolkig
Do, 26.05. 19:20 15.5° C wolkig
Do, 26.05. 19:10 15.6° C bedeckt
Do, 26.05. 19:00 15.6° C bewölkt
Do, 26.05. 18:50 15.6° C bewölkt
Do, 26.05. 18:40 15.5° C bedeckt
Do, 26.05. 18:30 15.9° C bedeckt
Do, 26.05. 18:00 16.0° C wolkig
Do, 26.05. 17:30 15.7° C bewölkt
Do, 26.05. 17:00 16.7° C wolkig
Do, 26.05. 16:30 16.3° C wolkig
Ortszeit Relative Feuchte Sichtweite
Do, 26.05. 14:00 52% 20 km
Do, 26.05. 8:00 85% 35 km
Do, 26.05. 2:00 76% 40 km
Mi, 25.05. 20:00 85% 5.0 km
Mi, 25.05. 14:00 68% 40 km
Mi, 25.05. 8:00 79% 45 km
Mi, 25.05. 2:00 85% 40 km
Di, 24.05. 20:00 78% 40 km
Ortszeit Relative Feuchte Sichtweite
Do, 26.05. 19:30 63% 28 km
Do, 26.05. 19:20 63% -
Do, 26.05. 19:10 63% -
Do, 26.05. 19:00 62% 35 km
Do, 26.05. 18:50 62% -
Do, 26.05. 18:40 67% -
Do, 26.05. 18:30 63% 35 km
Do, 26.05. 18:00 64% 30 km
Do, 26.05. 17:30 63% 30 km
Do, 26.05. 17:00 59% 22 km
Do, 26.05. 16:30 57% 20 km
Ortszeit Niederschlagsmenge Niederschlagsart
Do, 26.05. 14:00 0.1 l/m2 in 6 Std. Niederschlag
Do, 26.05. 8:00 0.7 l/m2 in 12 Std. Regen
Do, 26.05. 2:00 0.4 l/m2 in 6 Std. Regen
Mi, 25.05. 20:00 1 l/m2 in 12 Std. Regen
Mi, 25.05. 14:00 0.0 l/m2 in 6 Std. -
Mi, 25.05. 8:00 0.1 l/m2 in 12 Std. -
Mi, 25.05. 2:00 0.1 l/m2 in 6 Std. Regen
Di, 24.05. 20:00 2 l/m2 in 12 Std. Regen
Ortszeit Niederschlagsmenge Niederschlagsart
Do, 26.05. 19:30 0.0 l/m2 in 1 Std. -
Do, 26.05. 19:20 keine Meldung -
Do, 26.05. 19:10 keine Meldung -
Do, 26.05. 19:00 0.0 l/m2 in 1 Std. -
Do, 26.05. 18:50 keine Meldung -
Do, 26.05. 18:40 keine Meldung -
Do, 26.05. 18:30 0.0 l/m2 in 1 Std. -
Do, 26.05. 18:00 0.0 l/m2 in 1 Std. -
Do, 26.05. 17:30 0.0 l/m2 in 1 Std. -
Do, 26.05. 17:00 0.0 l/m2 in 1 Std. -
Do, 26.05. 16:30 0.0 l/m2 in 1 Std. -
Ortszeit Stärke Spitze Richtung
km/h Bft. km/h Grad Sektor
Do, 26.05. 14:00 41 6 61 270° W
Do, 26.05. 8:00 17 3 43 250° W
Do, 26.05. 2:00 13 3 57 210° SW
Mi, 25.05. 20:00 54 7 72 300° NW
Mi, 25.05. 14:00 13 3 24 310° NW
Mi, 25.05. 8:00 7 2 18 210° SW
Mi, 25.05. 2:00 11 2 36 200° S
Di, 24.05. 20:00 31 5 44 300° NW
Ortszeit Stärke Spitze Richtung
km/h Bft. km/h Grad Sektor
Do, 26.05. 19:30 31 5 48 260° W
Do, 26.05. 19:20 31 5 - 260° W
Do, 26.05. 19:10 28 4 - 260° W
Do, 26.05. 19:00 26 4 44 270° W
Do, 26.05. 18:50 26 4 - 270° W
Do, 26.05. 18:40 28 4 - 280° W
Do, 26.05. 18:30 29 5 43 280° W
Do, 26.05. 18:00 33 5 48 270° W
Do, 26.05. 17:30 32 5 47 280° W
Do, 26.05. 17:00 33 5 57 270° W
Do, 26.05. 16:30 37 5 57 270° W
Ortszeit Untergrenze Bedeckung Gattung
total tief tief mittel hoch
Do, 26.05. 14:00 1800 m 7/8 7/8 - - -
Do, 26.05. 8:00 570 m 8/8 8/8 - - -
Do, 26.05. 2:00 1290 m 8/8 8/8 - - -
Mi, 25.05. 20:00 1080 m 8/8 8/8 - - -
Mi, 25.05. 14:00 6000 m 6/8 6/8 - - -
Mi, 25.05. 8:00 2100 m 7/8 2/8 - - -
Mi, 25.05. 2:00 - 0/8 0/8 - - -
Di, 24.05. 20:00 1380 m 5/8 3/8 - - -
Ortszeit Bedeckungsgrad in Achtel und Wolkenuntergrenze
Do, 26.05. 19:30 2(1470m) 8(3300m)
Do, 26.05. 19:20 2(1470m) 2(1800m) 8(3300m)
Do, 26.05. 19:10 8
Do, 26.05. 19:00 4(1500m) 8(3900m) 8(4500m)
Do, 26.05. 18:50 4(1500m) 8(3900m) 8(4500m)
Do, 26.05. 18:40 8
Do, 26.05. 18:30 8(4200m)
Do, 26.05. 18:00 2(1800m) 8(4200m)
Do, 26.05. 17:30 7(1800m)
Do, 26.05. 17:00 1(1500m) 6(2100m)
Do, 26.05. 16:30 5(1800m)
Ortszeit Luftdruck NN (hPa) Tendenz (hPa in 3 Std.)
Do, 26.05. 14:00 1015 + 1,7
Do, 26.05. 8:00 1012 + 0,9
Do, 26.05. 2:00 1012 - 1,1
Mi, 25.05. 20:00 1014 + 1,5
Mi, 25.05. 14:00 1013 - 0,3
Mi, 25.05. 8:00 1012 + 0,7
Mi, 25.05. 2:00 1011 + 1,1
Di, 24.05. 20:00 1007 + 1,9
Ortszeit Luftdruck NN (hPa) Tendenz (hPa in 3 Std.)
Do, 26.05. 19:30 1015 - 0,4
Do, 26.05. 19:20 1015 keine Meldung
Do, 26.05. 19:10 1015 keine Meldung
Do, 26.05. 19:00 1015 - 0,3
Do, 26.05. 18:50 1015 keine Meldung
Do, 26.05. 18:40 1015 keine Meldung
Do, 26.05. 18:30 1015 - 0,2
Do, 26.05. 18:00 1015 - 0,1
Do, 26.05. 17:30 1016 + 0,2
Do, 26.05. 17:00 1015 0,0
Do, 26.05. 16:30 1016 + 0,3
Ortszeit Schneehöhe (cm)
Do, 26.05. 14:00 0
Do, 26.05. 8:00 0
Do, 26.05. 2:00 0
Mi, 25.05. 20:00 0
Mi, 25.05. 14:00 0
Mi, 25.05. 8:00 0
Mi, 25.05. 2:00 0
Di, 24.05. 20:00 0
Ortszeit Schneehöhe (cm)
Do, 26.05. 19:30 0
Do, 26.05. 19:20 0
Do, 26.05. 19:10 0
Do, 26.05. 19:00 0
Do, 26.05. 18:50 0
Do, 26.05. 18:40 0
Do, 26.05. 18:30 0
Do, 26.05. 18:00 0
Do, 26.05. 17:30 0
Do, 26.05. 17:00 0
Do, 26.05. 16:30 0
Link zu dieser Seite / Seite empfehlen

Das Wetter in ...